Time;durP1;ratioP1;P1;durP2;ratioP2;P2;SDS_P1;SDS_P2;PMS_P1;PMS_P2;Temp;Humidity;BMP_temperature;BMP_pressure;BME280_temperature;BME280_humidity;BME280_pressure;Samples;Min_cycle;Max_cycle;Signal;HPM_P1;HPM_P2
2023/10/05 00:00:46;;;;;;;11.30;6.80;;;;;;;13.24;65.13;99918.83;232713;214;139148;-59
2023/10/05 00:06:14;;;;;;;14.00;7.20;;;;;;;13.20;65.31;99913.32;232723;214;137306;-61
2023/10/05 00:11:30;;;;;;;15.90;7.60;;;;;;;13.16;65.40;99909.64;232761;214;151110;-60
2023/10/05 00:16:36;;;;;;;;;;;;;;;13.13;65.60;99901.81;232812;214;138176;-60
2023/10/05 00:21:57;;;;;;;12.30;6.90;;;;;;;13.11;65.75;99898.56;232891;214;135165;-60
2023/10/05 00:27:11;;;;;;;15.80;7.10;;;;;;;13.10;65.84;99893.63;232898;214;149938;-57
2023/10/05 00:32:34;;;;;;;13.10;7.20;;;;;;;13.07;65.93;99892.91;232752;214;137869;-61
2023/10/05 00:37:38;;;;;;;14.00;6.70;;;;;;;13.09;66.03;99890.28;232621;214;138692;-60
2023/10/05 00:42:42;;;;;;;12.10;7.40;;;;;;;13.13;66.03;99885.98;232763;214;149760;-60
2023/10/05 00:47:48;;;;;;;16.70;7.40;;;;;;;13.17;65.90;99890.71;232738;214;138932;-60
2023/10/05 00:52:53;;;;;;;15.20;8.00;;;;;;;13.19;65.96;99895.02;232894;214;137190;-60
2023/10/05 00:57:56;;;;;;;16.10;7.40;;;;;;;13.17;65.94;99892.32;232887;215;149508;-60
2023/10/05 01:08:23;;;;;;;13.00;7.70;;;;;;;13.07;66.25;99889.00;232906;215;138007;-59
2023/10/05 01:13:33;;;;;;;13.10;7.50;;;;;;;12.99;66.40;99889.24;232955;214;150153;-59
2023/10/05 01:18:39;;;;;;;10.80;7.10;;;;;;;12.93;66.65;99880.01;233005;215;139296;-62
2023/10/05 01:23:44;;;;;;;13.00;7.20;;;;;;;12.88;66.73;99873.31;232902;214;137829;-60
2023/10/05 01:28:48;;;;;;;14.00;7.80;;;;;;;12.82;66.92;99869.80;232866;214;149302;-60
2023/10/05 01:33:52;;;;;;;12.00;7.20;;;;;;;12.78;67.12;99859.14;232914;214;139471;-60
2023/10/05 01:39:02;;;;;;;13.40;7.60;;;;;;;12.75;67.44;99857.86;233000;214;137464;-61
2023/10/05 01:44:08;;;;;;;15.70;7.70;;;;;;;12.72;67.51;99858.95;232942;214;149196;-60
2023/10/05 01:49:12;;;;;;;;;;;;;;;12.78;67.43;99854.52;232896;214;137736;-62
2023/10/05 01:54:16;;;;;;;15.40;7.70;;;;;;;12.83;67.27;99846.39;232987;215;135017;-60
2023/10/05 01:59:24;;;;;;;18.30;8.50;;;;;;;12.86;67.27;99838.89;232874;214;149893;-60
2023/10/05 02:04:30;;;;;;;16.60;8.40;;;;;;;12.88;67.28;99837.90;232785;215;138870;-61
2023/10/05 02:09:34;;;;;;;15.80;8.10;;;;;;;12.87;67.18;99824.77;232720;214;137079;-61
2023/10/05 02:14:41;;;;;;;17.90;9.00;;;;;;;12.83;67.31;99813.98;232852;214;149309;-59
2023/10/05 02:19:45;;;;;;;14.20;8.40;;;;;;;12.79;67.37;99813.34;232667;214;140367;-60
2023/10/05 02:24:51;;;;;;;16.30;8.60;;;;;;;12.75;67.47;99814.23;232933;214;137761;-61
2023/10/05 02:29:57;;;;;;;15.10;7.90;;;;;;;12.72;67.52;99812.27;232919;215;150244;-61
2023/10/05 02:35:24;;;;;;;17.40;8.10;;;;;;;12.73;67.51;99814.53;232678;214;139356;-58
2023/10/05 02:40:46;;;;;;;17.40;8.80;;;;;;;12.70;67.52;99809.74;232969;215;137364;-61
2023/10/05 02:45:50;;;;;;;40.90;30.50;;;;;;;12.77;68.37;99811.30;232834;215;148501;-62
2023/10/05 02:50:55;;;;;;;15.00;8.30;;;;;;;12.80;68.28;99807.77;232801;214;139969;-60
2023/10/05 02:55:59;;;;;;;95.40;74.70;;;;;;;12.88;68.12;99807.27;232989;215;137134;-59
2023/10/05 03:01:10;;;;;;;14.50;8.10;;;;;;;12.95;68.20;99805.05;232936;215;149774;-60
2023/10/05 03:06:15;;;;;;;15.40;7.80;;;;;;;12.94;67.78;99802.63;232918;215;138888;-62
2023/10/05 03:11:19;;;;;;;21.90;8.50;;;;;;;12.90;68.13;99805.92;232965;215;139751;-61
2023/10/05 03:16:28;;;;;;;18.50;7.70;;;;;;;12.81;68.51;99817.50;232966;215;149403;-61
2023/10/05 03:21:35;;;;;;;18.30;7.60;;;;;;;12.74;68.56;99811.86;232990;216;138770;-62
2023/10/05 03:26:43;;;;;;;15.50;8.30;;;;;;;12.66;68.18;99814.96;233038;215;137196;-63
2023/10/05 03:31:58;;;;;;;17.70;7.90;;;;;;;12.66;68.11;99815.88;232983;215;148083;-63
2023/10/05 03:37:12;;;;;;;17.10;7.80;;;;;;;12.66;68.79;99810.73;232979;215;137786;-63
2023/10/05 03:42:16;;;;;;;17.00;7.80;;;;;;;12.62;69.09;99813.42;233041;215;137915;-65
2023/10/05 03:47:19;;;;;;;136.50;101.60;;;;;;;12.62;69.51;99816.09;233041;215;150179;-61
2023/10/05 03:52:29;;;;;;;17.10;8.70;;;;;;;12.68;69.54;99814.52;233006;215;139215;-63
2023/10/05 03:57:34;;;;;;;21.90;8.70;;;;;;;12.66;69.39;99814.59;233063;215;137143;-64
2023/10/05 04:02:40;;;;;;;17.20;7.70;;;;;;;12.61;69.45;99818.30;233062;216;149473;-60
2023/10/05 04:07:44;;;;;;;15.30;6.80;;;;;;;12.59;68.97;99820.40;233100;213;139593;-68
2023/10/05 04:12:51;;;;;;;12.60;6.10;;;;;;;12.59;68.47;99818.92;232876;215;138592;-67
2023/10/05 04:17:56;;;;;;;11.60;6.30;;;;;;;12.55;68.24;99815.77;233014;215;149678;-65
2023/10/05 04:22:59;;;;;;;12.60;6.20;;;;;;;12.50;68.26;99813.75;232946;215;138732;-61
2023/10/05 04:28:04;;;;;;;13.80;6.00;;;;;;;12.46;68.18;99809.34;232915;215;138251;-59
2023/10/05 04:33:08;;;;;;;11.30;6.10;;;;;;;12.45;68.25;99802.15;233024;215;149630;-61
2023/10/05 04:38:16;;;;;;;11.60;5.70;;;;;;;12.45;68.23;99800.73;233028;215;138367;-62
2023/10/05 04:43:21;;;;;;;12.20;6.10;;;;;;;12.42;68.61;99802.11;233035;215;138862;-63
2023/10/05 04:48:26;;;;;;;15.20;6.10;;;;;;;12.37;68.66;99796.38;233009;215;149353;-65
2023/10/05 04:53:30;;;;;;;16.00;6.20;;;;;;;12.35;68.98;99788.50;232955;215;138850;-64
2023/10/05 04:58:53;;;;;;;12.10;6.00;;;;;;;12.30;69.15;99783.96;233078;216;137327;-64
2023/10/05 05:04:12;;;;;;;13.70;6.80;;;;;;;12.22;69.25;99789.91;232922;215;148826;-63
2023/10/05 05:09:18;;;;;;;18.60;7.30;;;;;;;12.14;69.36;99795.35;233153;215;137947;-64
2023/10/05 05:14:23;;;;;;;24.80;7.80;;;;;;;12.05;69.85;99796.21;232945;215;137628;-64
2023/10/05 05:19:27;;;;;;;13.50;6.20;;;;;;;11.98;70.02;99791.23;233094;215;149376;-63
2023/10/05 05:24:37;;;;;;;17.70;6.50;;;;;;;12.00;69.81;99787.92;232935;215;140130;-65
2023/10/05 05:29:42;;;;;;;15.80;6.40;;;;;;;12.04;69.93;99786.11;232948;215;137321;-61
2023/10/05 05:34:48;;;;;;;13.60;5.70;;;;;;;12.11;69.82;99787.00;232999;215;149714;-63
2023/10/05 05:39:54;;;;;;;26.20;7.50;;;;;;;12.19;69.83;99778.20;233002;215;139694;-65
2023/10/05 05:44:58;;;;;;;25.70;7.10;;;;;;;12.24;69.79;99769.70;232915;215;137180;-62
2023/10/05 05:50:04;;;;;;;15.20;7.10;;;;;;;12.28;69.74;99765.55;233003;215;149381;-61
2023/10/05 05:55:15;;;;;;;14.90;6.70;;;;;;;12.33;69.59;99770.62;233071;215;139432;-63
2023/10/05 06:00:19;;;;;;;13.20;6.60;;;;;;;12.39;69.38;99770.44;233056;215;136978;-62
2023/10/05 06:05:23;;;;;;;16.60;6.10;;;;;;;12.45;69.24;99768.13;233045;215;149629;-60
2023/10/05 06:10:28;;;;;;;9.70;5.70;;;;;;;12.53;68.92;99767.11;233015;215;139436;-59
2023/10/05 06:15:34;;;;;;;18.70;6.20;;;;;;;12.63;68.64;99760.48;232943;215;137319;-59
2023/10/05 06:20:38;;;;;;;15.40;6.00;;;;;;;12.71;68.39;99760.90;233051;215;149518;-64
2023/10/05 06:25:44;;;;;;;13.00;5.20;;;;;;;12.78;68.08;99754.11;232956;215;138364;-62
2023/10/05 06:30:50;;;;;;;11.80;5.50;;;;;;;12.88;67.98;99751.92;233057;213;138503;-62
2023/10/05 06:35:54;;;;;;;16.20;6.40;;;;;;;13.02;67.61;99748.52;232991;215;150521;-63
2023/10/05 06:40:58;;;;;;;12.60;5.50;;;;;;;13.14;67.15;99753.14;232985;216;139679;-63
2023/10/05 06:46:17;;;;;;;13.10;5.50;;;;;;;13.27;66.85;99754.35;233092;215;138119;-61
2023/10/05 06:51:27;;;;;;;13.80;5.50;;;;;;;13.40;66.29;99751.25;233033;215;150618;-62
2023/10/05 06:56:30;;;;;;;12.90;5.50;;;;;;;13.51;65.86;99747.67;233011;215;140028;-62
2023/10/05 07:01:37;;;;;;;11.70;4.80;;;;;;;13.59;65.55;99746.33;232944;215;138429;-60
2023/10/05 07:06:41;;;;;;;12.80;4.90;;;;;;;13.68;65.34;99748.22;232869;214;149286;-61
2023/10/05 07:11:45;;;;;;;9.40;4.40;;;;;;;13.80;65.07;99750.68;233017;215;137741;-62
2023/10/05 07:16:49;;;;;;;9.50;4.40;;;;;;;13.95;64.73;99752.05;232983;215;137039;-61
2023/10/05 07:21:54;;;;;;;13.00;4.70;;;;;;;14.09;64.35;99750.41;232980;215;150430;-61
2023/10/05 07:26:58;;;;;;;14.60;4.70;;;;;;;14.22;64.01;99743.33;232992;215;140015;-60
2023/10/05 07:32:06;;;;;;;13.70;4.60;;;;;;;14.34;63.72;99745.73;232743;215;137618;-61
2023/10/05 07:37:10;;;;;;;10.20;4.30;;;;;;;14.48;63.16;99749.11;232836;215;150063;-62
2023/10/05 07:42:16;;;;;;;11.10;4.20;;;;;;;14.60;62.52;99746.16;232834;215;139139;-59
2023/10/05 07:47:21;;;;;;;9.10;4.20;;;;;;;14.72;62.25;99740.89;232712;215;138143;-59
2023/10/05 07:52:25;;;;;;;9.70;3.80;;;;;;;14.83;61.84;99738.67;232807;215;150341;-59
2023/10/05 07:57:29;;;;;;;10.20;3.80;;;;;;;14.97;61.13;99735.79;232836;214;139303;-58
2023/10/05 08:02:34;;;;;;;10.50;3.80;;;;;;;15.08;60.95;99735.40;232962;215;138455;-58
2023/10/05 08:07:39;;;;;;;9.30;3.80;;;;;;;15.24;60.98;99734.24;233006;214;149405;-58
2023/10/05 08:12:43;;;;;;;11.00;3.70;;;;;;;15.38;61.01;99735.05;232676;214;138841;-59
2023/10/05 08:17:49;;;;;;;9.20;3.90;;;;;;;15.52;60.89;99734.41;232773;214;137253;-60
2023/10/05 08:22:56;;;;;;;10.40;4.50;;;;;;;15.69;60.66;99732.55;232704;214;148566;-62
2023/10/05 08:28:02;;;;;;;10.30;4.20;;;;;;;15.80;60.31;99731.85;232738;214;140612;-62
2023/10/05 08:33:15;;;;;;;;;;;;;;;15.85;60.31;99730.46;232758;214;137953;-60
2023/10/05 08:38:24;;;;;;;9.00;4.50;;;;;;;15.92;60.41;99725.48;232836;214;150374;-59
2023/10/05 08:43:28;;;;;;;14.00;4.60;;;;;;;16.01;60.35;99724.11;232798;214;138849;-61
2023/10/05 08:53:48;;;;;;;8.40;3.50;;;;;;;16.04;59.78;99721.03;232790;214;150187;-61
2023/10/05 08:58:53;;;;;;;11.70;4.30;;;;;;;16.13;59.82;99710.31;232713;214;138697;-61
2023/10/05 09:04:01;;;;;;;9.70;3.70;;;;;;;16.29;59.34;99707.70;232834;214;137071;-56
2023/10/05 09:14:23;;;;;;;7.60;4.00;;;;;;;16.50;58.93;99701.64;232820;214;137885;-60
2023/10/05 09:19:33;;;;;;;9.50;4.50;;;;;;;16.60;58.94;99693.00;232833;214;137192;-57
2023/10/05 09:24:42;;;;;;;9.70;4.20;;;;;;;16.72;58.99;99679.54;232811;214;150219;-59
2023/10/05 09:29:48;;;;;;;7.80;3.90;;;;;;;16.81;58.40;99672.81;232937;214;139817;-58
2023/10/05 09:34:56;;;;;;;9.70;3.30;;;;;;;16.96;57.73;99671.25;232847;214;137428;-59
2023/10/05 09:40:03;;;;;;;7.00;3.50;;;;;;;17.07;56.34;99665.92;232831;214;149379;-59
2023/10/05 09:45:12;;;;;;;134.00;88.00;;;;;;;17.15;56.83;99666.52;232820;214;139394;-61
2023/10/05 09:50:21;;;;;;;15.00;7.50;;;;;;;17.39;56.94;99669.15;232931;215;137748;-60
2023/10/05 09:55:30;;;;;;;7.20;3.90;;;;;;;17.60;56.86;99657.91;233129;215;150954;-61
2023/10/05 10:05:59;;;;;;;6.40;3.60;;;;;;;17.89;55.28;99650.91;233085;214;137473;-59
2023/10/05 10:11:07;;;;;;;8.50;3.00;;;;;;;17.88;55.01;99649.66;232865;215;149673;-59
2023/10/05 10:16:26;;;;;;;5.20;3.10;;;;;;;17.94;54.32;99648.64;232958;215;140443;-59
2023/10/05 10:21:42;;;;;;;118.40;76.60;;;;;;;18.13;53.10;99638.27;232947;215;137145;-60
2023/10/05 10:27:07;;;;;;;5.80;3.50;;;;;;;18.38;51.77;99624.14;232832;215;149422;-59
2023/10/05 10:32:19;;;;;;;6.90;2.20;;;;;;;18.47;50.98;99624.10;232795;214;139867;-60
2023/10/05 10:37:39;;;;;;;6.20;2.50;;;;;;;18.62;50.92;99608.65;232722;214;137241;-62
2023/10/05 10:42:50;;;;;;;6.90;2.60;;;;;;;18.77;49.70;99607.16;232821;214;150475;-60
2023/10/05 10:47:56;;;;;;;4.30;2.10;;;;;;;18.79;48.91;99602.65;232650;214;138810;-61
2023/10/05 10:53:16;;;;;;;7.90;2.30;;;;;;;18.80;49.28;99596.52;232766;214;136817;-61
2023/10/05 10:58:25;;;;;;;5.20;2.40;;;;;;;18.81;48.95;99586.32;232652;214;149716;-61
2023/10/05 11:03:30;;;;;;;16.50;2.70;;;;;;;18.80;48.15;99594.65;232822;214;139982;-60
2023/10/05 11:08:40;;;;;;;;;;;;;;;18.80;47.79;99581.77;232907;215;138139;-61
2023/10/05 11:13:54;;;;;;;7.30;2.10;;;;;;;18.82;47.93;99578.53;232853;215;149425;-61
2023/10/05 11:19:00;;;;;;;6.70;2.10;;;;;;;18.96;47.98;99573.86;232957;215;139400;-61
2023/10/05 11:24:06;;;;;;;3.90;2.30;;;;;;;19.07;47.57;99575.19;233077;215;137175;-61
2023/10/05 11:29:15;;;;;;;5.20;2.40;;;;;;;19.06;46.99;99579.30;233097;215;149441;-62
2023/10/05 11:34:22;;;;;;;5.40;2.00;;;;;;;19.06;47.12;99568.99;232891;215;138983;-60
2023/10/05 11:39:50;;;;;;;7.60;2.20;;;;;;;19.16;47.47;99558.42;232851;215;137109;-60
2023/10/05 11:44:57;;;;;;;6.10;2.10;;;;;;;19.26;47.42;99555.56;232806;215;149291;-59
2023/10/05 11:50:08;;;;;;;5.00;2.60;;;;;;;19.22;47.10;99554.98;232687;214;139611;-59
2023/10/05 11:55:14;;;;;;;6.10;2.20;;;;;;;19.15;47.30;99555.39;232664;214;137237;-59
2023/10/05 12:00:19;;;;;;;14.30;8.40;;;;;;;19.12;47.26;99547.23;232806;214;149433;-58
2023/10/05 12:05:25;;;;;;;6.50;2.80;;;;;;;19.16;47.09;99535.56;232774;214;138837;-59
2023/10/05 12:10:31;;;;;;;4.40;2.30;;;;;;;19.14;46.53;99533.88;232715;214;138701;-60
2023/10/05 12:15:36;;;;;;;3.90;2.00;;;;;;;19.11;46.49;99524.14;232716;214;151131;-59
2023/10/05 12:20:45;;;;;;;3.20;1.90;;;;;;;19.08;45.98;99517.40;232600;214;138499;-58
2023/10/05 12:25:53;;;;;;;8.50;1.80;;;;;;;19.04;45.54;99516.14;232784;214;138540;-59
2023/10/05 12:30:58;;;;;;;3.00;1.90;;;;;;;19.00;45.57;99515.77;232795;214;150954;-58
2023/10/05 12:36:07;;;;;;;11.20;2.10;;;;;;;18.91;45.60;99516.03;232802;215;137572;-56
2023/10/05 12:41:15;;;;;;;3.70;1.80;;;;;;;18.81;45.34;99512.25;233011;215;138070;-61
2023/10/05 12:46:28;;;;;;;5.00;1.90;;;;;;;18.76;45.22;99507.68;233022;214;150689;-60
2023/10/05 12:51:34;;;;;;;3.40;1.80;;;;;;;18.74;45.21;99509.15;232861;214;139218;-61
2023/10/05 12:56:38;;;;;;;5.60;2.00;;;;;;;18.72;45.25;99504.82;232903;214;136979;-62
2023/10/05 13:01:43;;;;;;;4.60;2.20;;;;;;;18.70;45.53;99500.95;232797;214;148982;-60
2023/10/05 13:06:47;;;;;;;5.70;1.80;;;;;;;18.71;45.78;99488.83;232835;214;138824;-61
2023/10/05 13:11:53;;;;;;;6.40;1.90;;;;;;;18.70;45.42;99483.02;232948;214;137452;-60
2023/10/05 13:16:57;;;;;;;5.00;1.90;;;;;;;18.70;45.62;99479.42;232833;214;149346;-59
2023/10/05 13:22:06;;;;;;;6.60;2.30;;;;;;;18.70;44.68;99483.70;232824;215;139929;-59
2023/10/05 13:27:09;;;;;;;5.30;2.20;;;;;;;18.70;44.11;99480.48;232884;215;137099;-59
2023/10/05 13:32:13;;;;;;;5.00;2.50;;;;;;;18.68;43.64;99484.09;232949;215;149356;-59
2023/10/05 13:37:19;;;;;;;6.20;2.80;;;;;;;18.65;43.82;99478.88;232833;215;139450;-59
2023/10/05 13:42:26;;;;;;;9.90;2.70;;;;;;;18.68;43.68;99479.91;232923;215;137511;-62
2023/10/05 13:47:31;;;;;;;6.40;2.40;;;;;;;18.67;43.75;99476.02;232899;214;149397;-62
2023/10/05 13:52:53;;;;;;;4.20;2.60;;;;;;;18.63;43.77;99463.98;232848;214;138864;-61
2023/10/05 13:57:58;;;;;;;9.40;2.80;;;;;;;18.62;43.82;99461.94;232886;214;137827;-61
2023/10/05 14:03:03;;;;;;;4.90;2.60;;;;;;;18.62;43.89;99456.23;232863;214;150373;-60
2023/10/05 14:08:10;;;;;;;5.40;2.50;;;;;;;18.63;44.05;99453.77;232848;214;139696;-60
2023/10/05 14:13:17;;;;;;;5.00;2.10;;;;;;;18.64;43.98;99447.89;232936;214;137546;-60
2023/10/05 14:18:22;;;;;;;7.60;2.50;;;;;;;18.70;44.42;99442.41;232813;214;149762;-60
2023/10/05 14:23:28;;;;;;;3.90;2.10;;;;;;;18.75;44.83;99448.45;232770;214;139767;-60
2023/10/05 14:28:33;;;;;;;5.80;2.10;;;;;;;18.76;45.07;99447.11;232780;214;138124;-60
2023/10/05 14:33:37;;;;;;;11.20;2.70;;;;;;;18.75;45.24;99450.63;232858;214;149235;-60
2023/10/05 14:38:41;;;;;;;6.20;2.10;;;;;;;18.72;45.25;99454.27;232794;214;140388;-59
2023/10/05 14:43:45;;;;;;;8.60;2.50;;;;;;;18.65;45.34;99449.84;232838;214;136993;-60
2023/10/05 14:48:50;;;;;;;5.30;2.70;;;;;;;18.59;45.59;99446.27;232851;214;149616;-60
2023/10/05 14:53:54;;;;;;;8.00;2.40;;;;;;;18.55;46.21;99446.39;232797;214;138755;-60
2023/10/05 14:58:58;;;;;;;5.60;2.60;;;;;;;18.55;46.42;99452.89;232770;214;137063;-60
2023/10/05 15:04:04;;;;;;;7.20;2.90;;;;;;;18.49;46.48;99458.80;232752;214;153174;-60
2023/10/05 15:09:08;;;;;;;;;;;;;;;18.47;46.89;99457.01;232760;214;139324;-61
2023/10/05 15:14:13;;;;;;;4.60;2.90;;;;;;;18.37;46.27;99462.30;232823;214;134762;-59
2023/10/05 15:19:17;;;;;;;7.40;3.10;;;;;;;18.32;46.40;99459.07;232856;214;149835;-60
2023/10/05 15:24:21;;;;;;;9.90;5.00;;;;;;;18.24;46.25;99457.02;232842;214;138408;-62
2023/10/05 15:29:25;;;;;;;12.20;3.20;;;;;;;18.15;46.07;99457.45;232766;214;137138;-61
2023/10/05 15:34:30;;;;;;;;;;;;;;;18.05;46.40;99460.29;232891;214;150434;-61
2023/10/05 15:39:36;;;;;;;6.00;3.00;;;;;;;17.97;46.40;99458.13;232894;214;140051;-59
2023/10/05 15:44:39;;;;;;;9.50;3.70;;;;;;;17.94;46.67;99465.89;232777;214;136911;-60
2023/10/05 15:49:43;;;;;;;6.40;3.40;;;;;;;17.92;47.04;99474.71;232720;214;149637;-61
2023/10/05 15:54:48;;;;;;;6.50;3.30;;;;;;;17.87;47.31;99480.85;232691;214;139813;-61
2023/10/05 15:59:52;;;;;;;8.00;4.60;;;;;;;17.79;47.96;99488.90;232704;214;137182;-61
2023/10/05 16:04:57;;;;;;;;;;;;;;;17.72;47.86;99488.70;232786;215;148030;-59
2023/10/05 16:10:07;;;;;;;10.10;3.60;;;;;;;17.67;48.01;99499.00;232810;214;139755;-61
2023/10/05 16:15:14;;;;;;;7.80;3.60;;;;;;;17.61;48.00;99503.52;232743;215;137074;-61
2023/10/05 16:20:23;;;;;;;10.70;6.30;;;;;;;17.57;48.13;99511.70;232820;215;149322;-67
2023/10/05 16:25:31;;;;;;;22.00;15.20;;;;;;;17.55;48.31;99518.39;232853;215;139750;-62
2023/10/05 16:30:35;;;;;;;7.30;3.80;;;;;;;17.55;48.53;99526.29;232852;214;137311;-62
2023/10/05 16:35:40;;;;;;;12.00;6.20;;;;;;;17.52;48.47;99531.31;232844;215;149626;-62
2023/10/05 16:40:44;;;;;;;12.40;3.90;;;;;;;17.49;48.64;99535.68;232802;215;140167;-61
2023/10/05 16:45:49;;;;;;;8.70;3.30;;;;;;;17.45;48.82;99542.29;232981;215;137100;-60
2023/10/05 16:50:53;;;;;;;11.10;4.30;;;;;;;17.41;48.99;99545.70;232924;215;148768;-61
2023/10/05 16:55:57;;;;;;;10.70;4.30;;;;;;;17.34;49.35;99543.00;232866;215;140295;-62
2023/10/05 17:01:04;;;;;;;8.10;4.10;;;;;;;17.28;49.72;99551.42;232820;214;137042;-59
2023/10/05 17:06:07;;;;;;;10.70;4.40;;;;;;;17.23;49.92;99555.79;232826;214;148378;-64
2023/10/05 17:11:11;;;;;;;10.10;4.20;;;;;;;17.20;50.36;99561.60;232940;215;141362;-62
2023/10/05 17:16:15;;;;;;;10.30;4.30;;;;;;;17.13;50.44;99563.20;232944;215;137372;-63
2023/10/05 17:21:19;;;;;;;12.70;4.40;;;;;;;17.06;50.73;99564.00;232812;214;150221;-64
2023/10/05 17:26:23;;;;;;;10.30;4.80;;;;;;;16.99;51.13;99572.63;232735;214;139715;-63
2023/10/05 17:31:28;;;;;;;7.90;4.30;;;;;;;16.91;51.51;99577.50;232657;214;138076;-62
2023/10/05 17:36:35;;;;;;;13.40;4.50;;;;;;;16.83;51.90;99571.92;232676;214;150269;-61
2023/10/05 17:41:39;;;;;;;38.40;23.60;;;;;;;16.76;52.17;99572.08;232722;214;137612;-62
2023/10/05 17:46:44;;;;;;;;;;;;;;;16.77;53.00;99570.56;232773;214;137866;-64
2023/10/05 17:51:49;;;;;;;12.10;5.40;;;;;;;16.78;52.80;99579.48;232724;214;150627;-65
2023/10/05 17:56:56;;;;;;;11.20;4.80;;;;;;;16.68;52.88;99577.86;232908;214;140657;-65
2023/10/05 18:02:00;;;;;;;13.60;5.00;;;;;;;16.60;53.28;99584.84;232892;214;137692;-64
2023/10/05 18:07:05;;;;;;;10.40;5.30;;;;;;;16.51;53.56;99589.06;232861;214;148126;-61
2023/10/05 18:12:12;;;;;;;13.80;5.30;;;;;;;16.45;53.78;99600.31;232803;214;140062;-64
2023/10/05 18:17:20;;;;;;;10.80;5.40;;;;;;;16.41;54.13;99607.59;232829;214;138627;-63
2023/10/05 18:22:23;;;;;;;11.50;5.50;;;;;;;16.39;54.40;99617.43;232766;214;149621;-62
2023/10/05 18:27:28;;;;;;;12.40;5.80;;;;;;;16.32;54.57;99615.80;232793;214;139875;-59
2023/10/05 18:32:32;;;;;;;13.10;5.30;;;;;;;16.25;54.70;99615.09;232809;214;137305;-61
2023/10/05 18:37:37;;;;;;;12.90;5.20;;;;;;;16.18;55.51;99622.59;232870;215;148832;-61
2023/10/05 18:42:43;;;;;;;10.70;5.30;;;;;;;16.08;55.78;99623.19;232827;215;139668;-62
2023/10/05 18:47:47;;;;;;;41.50;28.90;;;;;;;16.00;56.32;99625.73;232937;215;137263;-61
2023/10/05 18:52:53;;;;;;;32.00;21.80;;;;;;;15.99;56.77;99630.16;232938;215;149286;-61
2023/10/05 18:57:57;;;;;;;11.90;6.30;;;;;;;16.01;56.53;99633.19;232710;215;137909;-62
2023/10/05 19:03:02;;;;;;;15.70;6.80;;;;;;;15.89;56.41;99633.38;232884;215;140119;-61
2023/10/05 19:08:07;;;;;;;15.10;5.40;;;;;;;15.77;56.77;99633.55;232996;215;148720;-62
2023/10/05 19:13:11;;;;;;;13.30;6.10;;;;;;;15.65;56.89;99627.44;232941;215;138943;-61
2023/10/05 19:18:18;;;;;;;14.70;6.50;;;;;;;15.59;57.13;99631.25;233046;215;137620;-60
2023/10/05 19:23:22;;;;;;;16.60;6.60;;;;;;;15.57;57.25;99637.29;233003;215;149292;-60
2023/10/05 19:28:27;;;;;;;14.10;6.50;;;;;;;15.56;57.50;99641.65;233006;215;137803;-61
2023/10/05 19:33:33;;;;;;;14.30;7.00;;;;;;;15.54;57.72;99641.45;232987;215;137026;-62
2023/10/05 19:38:39;;;;;;;16.40;7.10;;;;;;;15.53;57.77;99639.90;232968;215;150698;-61
2023/10/05 19:43:42;;;;;;;15.70;7.80;;;;;;;15.52;57.92;99638.05;232995;215;139815;-62
2023/10/05 19:48:46;;;;;;;17.60;7.40;;;;;;;15.54;58.03;99646.83;232948;215;137300;-62
2023/10/05 19:53:50;;;;;;;16.30;7.00;;;;;;;15.58;58.20;99651.04;233022;215;150253;-60
2023/10/05 19:58:55;;;;;;;14.10;7.10;;;;;;;15.56;58.03;99655.42;232932;215;140950;-63
2023/10/05 20:04:00;;;;;;;19.00;7.40;;;;;;;15.58;57.99;99660.14;233046;214;137237;-62
2023/10/05 20:09:08;;;;;;;16.10;8.00;;;;;;;15.59;58.10;99661.27;232964;215;148760;-61
2023/10/05 20:14:12;;;;;;;16.20;7.90;;;;;;;15.62;58.14;99663.07;232933;215;138778;-61
2023/10/05 20:19:16;;;;;;;14.60;7.60;;;;;;;15.65;58.19;99660.34;232961;215;138496;-63
2023/10/05 20:24:22;;;;;;;22.10;8.20;;;;;;;15.66;58.16;99660.45;233099;215;151242;-63
2023/10/05 20:29:30;;;;;;;16.80;8.40;;;;;;;15.65;58.35;99656.76;232871;215;138794;-62
2023/10/05 20:34:35;;;;;;;13.30;7.50;;;;;;;15.65;58.27;99659.64;232930;215;137345;-62
2023/10/05 20:39:39;;;;;;;14.50;7.30;;;;;;;15.64;58.35;99659.30;233037;216;148163;-63
2023/10/05 20:44:43;;;;;;;17.10;8.70;;;;;;;15.63;58.36;99657.42;232973;216;139808;-63
2023/10/05 20:49:48;;;;;;;16.10;7.90;;;;;;;15.63;58.44;99656.89;233019;215;137318;-63
2023/10/05 20:54:52;;;;;;;16.40;7.90;;;;;;;15.64;58.50;99659.38;233056;215;150612;-64
2023/10/05 20:59:57;;;;;;;15.90;8.00;;;;;;;15.63;58.41;99662.63;233047;216;138725;-65
2023/10/05 21:05:01;;;;;;;16.90;8.40;;;;;;;15.66;58.56;99659.77;233089;216;137237;-58
2023/10/05 21:10:07;;;;;;;16.80;7.30;;;;;;;15.68;58.54;99661.77;232980;215;149272;-63
2023/10/05 21:15:11;;;;;;;15.80;7.40;;;;;;;15.67;58.51;99660.61;232941;215;138795;-63
2023/10/05 21:20:15;;;;;;;18.50;8.60;;;;;;;15.66;58.60;99658.86;233012;215;137625;-63
2023/10/05 21:25:19;;;;;;;18.20;8.30;;;;;;;15.65;58.66;99665.91;232982;215;149893;-62
2023/10/05 21:30:23;;;;;;;18.50;8.30;;;;;;;15.63;58.86;99667.28;232992;215;139420;-64
2023/10/05 21:35:27;;;;;;;15.10;7.70;;;;;;;15.64;59.06;99668.29;233024;215;137924;-62
2023/10/05 21:40:31;;;;;;;14.80;7.90;;;;;;;15.64;59.17;99675.77;233002;215;150516;-61
2023/10/05 21:45:35;;;;;;;14.70;7.80;;;;;;;15.63;59.42;99683.94;232949;215;137989;-63
2023/10/05 21:50:39;;;;;;;17.50;7.90;;;;;;;15.59;59.83;99686.66;232974;215;136920;-62
2023/10/05 21:55:44;;;;;;;14.30;7.60;;;;;;;15.52;60.11;99686.51;232988;215;149985;-61
2023/10/05 22:05:51;;;;;;;15.30;7.40;;;;;;;15.38;60.83;99693.96;232965;215;137760;-60
2023/10/05 22:10:56;;;;;;;16.40;7.00;;;;;;;15.32;61.29;99698.11;233055;215;150401;-62
2023/10/05 22:16:00;;;;;;;14.90;7.30;;;;;;;15.29;61.76;99698.48;232976;215;138093;-63
2023/10/05 22:21:04;;;;;;;17.90;7.00;;;;;;;15.26;61.93;99704.24;232986;215;137560;-62
2023/10/05 22:26:08;;;;;;;17.40;6.70;;;;;;;15.26;62.13;99708.41;233083;215;150022;-62
2023/10/05 22:31:12;;;;;;;12.40;6.30;;;;;;;15.26;62.17;99715.86;233083;215;138483;-64
2023/10/05 22:36:16;;;;;;;15.20;7.20;;;;;;;15.23;62.41;99723.41;233003;215;138437;-63
2023/10/05 22:41:21;;;;;;;;;;;;;;;15.20;62.61;99725.80;232927;215;150396;-63
2023/10/05 22:46:25;;;;;;;15.00;7.10;;;;;;;15.16;62.82;99729.48;233093;215;138878;-64
2023/10/05 22:51:30;;;;;;;16.00;7.20;;;;;;;15.10;63.03;99731.83;232980;215;137964;-63
2023/10/05 22:56:34;;;;;;;17.20;7.20;;;;;;;15.08;63.48;99730.87;233040;215;149843;-64
2023/10/05 23:01:46;;;;;;;13.20;6.90;;;;;;;15.07;63.79;99729.54;233012;215;138438;-63
2023/10/05 23:06:50;;;;;;;12.60;6.60;;;;;;;15.02;64.08;99729.86;232984;215;137206;-64
2023/10/05 23:11:55;;;;;;;15.10;6.70;;;;;;;15.01;64.33;99726.59;232986;215;149711;-62
2023/10/05 23:17:00;;;;;;;21.00;7.60;;;;;;;15.01;64.47;99730.16;232961;215;141257;-62
2023/10/05 23:22:04;;;;;;;14.40;6.10;;;;;;;15.00;64.67;99743.61;233104;216;138068;-61
2023/10/05 23:27:09;;;;;;;11.80;6.30;;;;;;;15.02;64.68;99749.55;233026;215;150131;-63
2023/10/05 23:32:15;;;;;;;15.30;6.80;;;;;;;15.03;64.71;99752.32;233141;216;139506;-63
2023/10/05 23:37:20;;;;;;;13.10;6.00;;;;;;;15.01;64.87;99756.77;233021;215;137196;-65
2023/10/05 23:42:30;;;;;;;13.10;6.60;;;;;;;15.00;65.08;99766.48;233051;215;150391;-65
2023/10/05 23:47:36;;;;;;;13.70;5.90;;;;;;;15.01;65.25;99771.09;232920;215;138173;-63
2023/10/05 23:52:40;;;;;;;10.10;5.80;;;;;;;15.02;65.42;99772.45;233137;215;137363;-66
2023/10/05 23:57:45;;;;;;;11.40;5.80;;;;;;;15.02;65.40;99777.96;233033;215;151828;-66
